Time,TemperatureF,DewpointF,PressureIn,WindDirection,WindDirectionDegrees,WindSpeedMPH,WindSpeedGustMPH,Humidity,HourlyPrecipIn,Conditions,Clouds,dailyrainin,SoftwareType,DateUTC
2013-01-29 00:03:00,50.9,45.9,30.06,West,270,12.5,-999.0,83,-99.99,,,0.00,Acu-Link.com,2013-01-29 05:03:00,
2013-01-29 00:18:00,51.8,46.8,30.06,WSW,247,15.5,-999.0,83,-99.99,,,0.00,Acu-Link.com,2013-01-29 05:18:00,
2013-01-29 00:34:00,51.1,46.4,30.06,West,270,11.4,-999.0,84,-99.99,,,0.00,Acu-Link.com,2013-01-29 05:34:00,
2013-01-29 00:49:00,51.4,46.7,30.06,West,270,7.3,-999.0,84,-99.99,,,0.00,Acu-Link.com,2013-01-29 05:49:00,
2013-01-29 01:04:00,51.4,47.4,30.06,West,270,10.9,-999.0,86,-99.99,,,0.00,Acu-Link.com,2013-01-29 06:04:00,
2013-01-29 01:20:00,51.3,47.3,30.06,West,270,11.9,-999.0,86,-99.99,,,0.00,Acu-Link.com,2013-01-29 06:20:00,
2013-01-29 01:35:00,50.9,46.9,30.05,West,270,9.9,-999.0,86,-99.99,,,0.00,Acu-Link.com,2013-01-29 06:35:00,
2013-01-29 01:50:00,50.7,47.0,30.06,West,270,10.4,-999.0,87,-99.99,,,0.00,Acu-Link.com,2013-01-29 06:50:00,
2013-01-29 02:05:00,50.9,47.2,30.06,West,270,14.5,-999.0,87,-99.99,,,0.00,Acu-Link.com,2013-01-29 07:05:00,
2013-01-29 02:20:00,50.5,46.8,30.06,West,270,8.9,-999.0,87,-99.99,,,0.00,Acu-Link.com,2013-01-29 07:20:00,
2013-01-29 02:36:00,50.4,47.3,30.06,West,270,10.4,-999.0,89,-99.99,,,0.00,Acu-Link.com,2013-01-29 07:36:00,
2013-01-29 02:51:00,50.9,47.8,30.05,WSW,247,8.9,-999.0,89,-99.99,,,0.00,Acu-Link.com,2013-01-29 07:51:00,
2013-01-29 03:06:00,51.3,48.5,30.06,WNW,292,8.9,-999.0,90,-99.99,,,0.00,Acu-Link.com,2013-01-29 08:06:00,
2013-01-29 03:21:00,51.1,48.3,30.06,West,270,8.3,-999.0,90,-99.99,,,0.00,Acu-Link.com,2013-01-29 08:21:00,
2013-01-29 03:37:00,51.1,48.3,30.06,West,270,9.4,-999.0,90,-99.99,,,0.00,Acu-Link.com,2013-01-29 08:37:00,
2013-01-29 03:52:00,51.4,48.6,30.05,West,270,11.9,-999.0,90,-99.99,,,0.00,Acu-Link.com,2013-01-29 08:52:00,
2013-01-29 04:15:00,51.3,48.5,30.06,West,270,10.4,-999.0,90,-99.99,,,0.00,Acu-Link.com,2013-01-29 09:15:00,
2013-01-29 04:30:00,51.4,48.6,30.05,West,270,11.4,-999.0,90,-99.99,,,0.00,Acu-Link.com,2013-01-29 09:30:00,
2013-01-29 04:45:00,51.1,48.9,30.05,WSW,247,8.3,-999.0,92,-99.99,,,0.00,Acu-Link.com,2013-01-29 09:45:00,
2013-01-29 05:00:00,51.4,48.9,30.06,West,270,10.4,-999.0,91,-99.99,,,0.00,Acu-Link.com,2013-01-29 10:00:00,
2013-01-29 05:16:00,51.8,48.4,30.05,West,270,11.9,-999.0,88,-99.99,,,0.00,Acu-Link.com,2013-01-29 10:16:00,
2013-01-29 05:31:00,51.8,48.4,30.06,West,270,8.9,-999.0,88,-99.99,,,0.00,Acu-Link.com,2013-01-29 10:31:00,
2013-01-29 05:46:00,51.6,48.2,30.06,WSW,247,10.9,-999.0,88,-99.99,,,0.00,Acu-Link.com,2013-01-29 10:46:00,
2013-01-29 06:01:00,49.6,46.5,30.06,WSW,247,4.2,-999.0,89,-99.99,,,0.00,Acu-Link.com,2013-01-29 11:01:00,
2013-01-29 06:16:00,48.7,46.2,30.06,West,270,7.3,-999.0,91,-99.99,,,0.00,Acu-Link.com,2013-01-29 11:16:00,
2013-01-29 06:32:00,48.9,46.4,30.06,West,270,7.8,-999.0,91,-99.99,,,0.00,Acu-Link.com,2013-01-29 11:32:00,
2013-01-29 06:47:00,48.7,46.5,30.07,SW,225,6.3,-999.0,92,-99.99,,,0.00,Acu-Link.com,2013-01-29 11:47:00,
2013-01-29 07:02:00,48.6,47.0,30.06,WSW,247,9.9,-999.0,94,-99.99,,,0.00,Acu-Link.com,2013-01-29 12:02:00,
2013-01-29 07:18:00,49.5,47.6,30.07,WSW,247,7.8,-999.0,93,-99.99,,,0.00,Acu-Link.com,2013-01-29 12:18:00,
2013-01-29 07:33:00,50.5,48.0,30.07,West,270,7.8,-999.0,91,-99.99,,,0.00,Acu-Link.com,2013-01-29 12:33:00,
2013-01-29 07:48:00,49.3,46.8,30.07,SSW,202,7.3,-999.0,91,-99.99,,,0.00,Acu-Link.com,2013-01-29 12:48:00,
2013-01-29 08:03:00,48.2,45.4,30.07,WSW,247,4.7,-999.0,90,-99.99,,,0.00,Acu-Link.com,2013-01-29 13:03:00,
2013-01-29 08:18:00,48.7,45.9,30.08,West,270,6.8,-999.0,90,-99.99,,,0.00,Acu-Link.com,2013-01-29 13:18:00,
2013-01-29 08:34:00,50.5,46.5,30.07,WSW,247,7.8,-999.0,86,-99.99,,,0.00,Acu-Link.com,2013-01-29 13:34:00,
2013-01-29 08:49:00,52.7,47.4,30.05,WSW,247,11.4,-999.0,82,-99.99,,,0.00,Acu-Link.com,2013-01-29 13:49:00,
2013-01-29 09:04:00,53.4,46.7,30.04,WSW,247,10.9,-999.0,78,-99.99,,,0.00,Acu-Link.com,2013-01-29 14:04:00,
2013-01-29 09:19:00,54.7,46.6,30.02,WSW,247,10.9,-999.0,74,-99.99,,,0.00,Acu-Link.com,2013-01-29 14:19:00,
2013-01-29 09:35:00,55.2,46.7,30.02,WSW,247,10.9,-999.0,73,-99.99,,,0.00,Acu-Link.com,2013-01-29 14:35:00,
2013-01-29 09:50:00,56.1,46.8,30.04,WSW,247,13.0,-999.0,71,-99.99,,,0.00,Acu-Link.com,2013-01-29 14:50:00,
2013-01-29 10:05:00,57.9,47.4,30.05,West,270,11.4,-999.0,68,-99.99,,,0.00,Acu-Link.com,2013-01-29 15:05:00,
2013-01-29 10:20:00,59.5,48.1,30.05,WSW,247,10.9,-999.0,66,-99.99,,,0.00,Acu-Link.com,2013-01-29 15:20:00,
2013-01-29 10:35:00,61.3,49.0,30.03,WSW,247,10.9,-999.0,64,-99.99,,,0.00,Acu-Link.com,2013-01-29 15:35:00,
2013-01-29 10:50:00,62.2,50.3,29.99,West,270,4.7,-999.0,65,-99.99,,,0.00,Acu-Link.com,2013-01-29 15:50:00,
2013-01-29 11:06:00,61.9,50.0,29.98,SW,225,4.7,-999.0,65,-99.99,,,0.00,Acu-Link.com,2013-01-29 16:06:00,
2013-01-29 11:21:00,61.9,49.2,29.98,WSW,247,5.8,-999.0,63,-99.99,,,0.00,Acu-Link.com,2013-01-29 16:21:00,
2013-01-29 11:36:00,62.6,49.4,29.98,WSW,247,6.8,-999.0,62,-99.99,,,0.00,Acu-Link.com,2013-01-29 16:36:00,
2013-01-29 11:52:00,61.2,49.3,29.99,SW,225,3.7,-999.0,65,-99.99,,,0.00,Acu-Link.com,2013-01-29 16:52:00,
2013-01-29 12:07:00,60.8,49.4,30.00,WSW,247,5.8,-999.0,66,-99.99,,,0.00,Acu-Link.com,2013-01-29 17:07:00,
2013-01-29 12:22:00,61.5,49.6,30.00,WSW,247,5.8,-999.0,65,-99.99,,,0.00,Acu-Link.com,2013-01-29 17:22:00,
2013-01-29 12:37:00,63.0,49.8,29.95,WSW,247,9.4,-999.0,62,-99.99,,,0.00,Acu-Link.com,2013-01-29 17:37:00,
2013-01-29 12:53:00,63.7,49.6,29.93,WSW,247,7.3,-999.0,60,-99.99,,,0.00,Acu-Link.com,2013-01-29 17:53:00,
2013-01-29 13:08:00,64.8,51.0,29.93,SW,225,5.8,-999.0,61,-99.99,,,0.00,Acu-Link.com,2013-01-29 18:08:00,
2013-01-29 13:23:00,64.0,50.3,29.93,SW,225,3.7,-999.0,61,-99.99,,,0.00,Acu-Link.com,2013-01-29 18:23:00,
2013-01-29 13:39:00,65.7,50.5,29.92,SW,225,6.8,-999.0,58,-99.99,,,0.00,Acu-Link.com,2013-01-29 18:39:00,
2013-01-29 13:54:00,64.8,50.6,29.92,West,270,7.8,-999.0,60,-99.99,,,0.00,Acu-Link.com,2013-01-29 18:54:00,
2013-01-29 14:09:00,65.3,50.1,29.91,WSW,247,5.3,-999.0,58,-99.99,,,0.00,Acu-Link.com,2013-01-29 19:09:00,
2013-01-29 14:24:00,66.2,50.0,29.88,WSW,247,4.7,-999.0,56,-99.99,,,0.00,Acu-Link.com,2013-01-29 19:24:00,
2013-01-29 14:40:00,65.8,49.7,29.90,WSW,247,4.2,-999.0,56,-99.99,,,0.00,Acu-Link.com,2013-01-29 19:40:00,
2013-01-29 14:55:00,65.1,49.5,29.92,WSW,247,5.3,-999.0,57,-99.99,,,0.00,Acu-Link.com,2013-01-29 19:55:00,
2013-01-29 15:10:00,65.8,49.7,29.89,SSW,202,2.7,-999.0,56,-99.99,,,0.00,Acu-Link.com,2013-01-29 20:10:00,
2013-01-29 15:26:00,66.6,49.4,29.88,SSW,202,3.7,-999.0,54,-99.99,,,0.00,Acu-Link.com,2013-01-29 20:26:00,
2013-01-29 15:41:00,65.8,48.7,29.91,South,180,5.8,-999.0,54,-99.99,,,0.00,Acu-Link.com,2013-01-29 20:41:00,
2013-01-29 15:57:00,65.7,48.6,29.92,SSW,202,4.2,-999.0,54,-99.99,,,0.00,Acu-Link.com,2013-01-29 20:57:00,
2013-01-29 16:12:00,64.4,48.4,29.93,SSW,202,3.2,-999.0,56,-99.99,,,0.00,Acu-Link.com,2013-01-29 21:12:00,
2013-01-29 16:27:00,65.1,48.0,29.92,SW,225,3.7,-999.0,54,-99.99,,,0.00,Acu-Link.com,2013-01-29 21:27:00,
2013-01-29 16:42:00,64.4,47.9,29.93,SSW,202,3.2,-999.0,55,-99.99,,,0.00,Acu-Link.com,2013-01-29 21:42:00,
2013-01-29 16:58:00,63.0,47.1,29.93,WSW,247,6.3,-999.0,56,-99.99,,,0.00,Acu-Link.com,2013-01-29 21:58:00,
2013-01-29 17:13:00,61.0,46.1,29.94,SSW,202,4.2,-999.0,58,-99.99,,,0.00,Acu-Link.com,2013-01-29 22:13:00,
2013-01-29 17:28:00,59.5,46.0,29.94,SSW,202,4.2,-999.0,61,-99.99,,,0.00,Acu-Link.com,2013-01-29 22:28:00,
2013-01-29 17:43:00,57.7,45.6,29.94,SSW,202,4.7,-999.0,64,-99.99,,,0.00,Acu-Link.com,2013-01-29 22:43:00,
2013-01-29 17:59:00,56.5,44.9,29.94,WSW,247,4.7,-999.0,65,-99.99,,,0.00,Acu-Link.com,2013-01-29 22:59:00,
2013-01-29 18:14:00,55.2,44.4,29.94,WSW,247,5.3,-999.0,67,-99.99,,,0.00,Acu-Link.com,2013-01-29 23:14:00,
2013-01-29 18:30:00,55.9,45.9,29.94,West,270,9.4,-999.0,69,-99.99,,,0.00,Acu-Link.com,2013-01-29 23:30:00,
2013-01-29 18:45:00,54.7,46.6,29.94,WSW,247,6.3,-999.0,74,-99.99,,,0.00,Acu-Link.com,2013-01-29 23:45:00,
2013-01-29 19:00:00,54.3,47.2,29.94,SW,225,4.7,-999.0,77,-99.99,,,0.00,Acu-Link.com,2013-01-30 00:00:00,
2013-01-29 19:15:00,53.6,47.2,29.94,SW,225,5.3,-999.0,79,-99.99,,,0.00,Acu-Link.com,2013-01-30 00:15:00,
2013-01-29 19:31:00,53.6,48.2,29.94,SW,225,4.7,-999.0,82,-99.99,,,0.00,Acu-Link.com,2013-01-30 00:31:00,
2013-01-29 19:46:00,53.2,49.4,29.94,SW,225,5.3,-999.0,87,-99.99,,,0.00,Acu-Link.com,2013-01-30 00:46:00,
2013-01-29 20:01:00,53.6,50.1,29.94,SW,225,5.3,-999.0,88,-99.99,,,0.00,Acu-Link.com,2013-01-30 01:01:00,
2013-01-29 20:16:00,53.1,49.9,29.94,SW,225,5.3,-999.0,89,-99.99,,,0.00,Acu-Link.com,2013-01-30 01:16:00,
2013-01-29 20:31:00,53.6,50.7,29.94,SW,225,6.8,-999.0,90,-99.99,,,0.00,Acu-Link.com,2013-01-30 01:31:00,
2013-01-29 20:47:00,54.1,51.2,29.94,WSW,247,6.8,-999.0,90,-99.99,,,0.00,Acu-Link.com,2013-01-30 01:47:00,
2013-01-29 21:02:00,53.2,50.6,29.94,WSW,247,4.2,-999.0,91,-99.99,,,0.00,Acu-Link.com,2013-01-30 02:02:00,
2013-01-29 21:17:00,54.1,51.5,29.95,West,270,8.9,-999.0,91,-99.99,,,0.00,Acu-Link.com,2013-01-30 02:17:00,
2013-01-29 21:33:00,54.9,52.3,29.94,SW,225,7.3,-999.0,91,-99.99,,,0.00,Acu-Link.com,2013-01-30 02:33:00,
2013-01-29 21:48:00,55.2,52.6,29.94,WSW,247,8.3,-999.0,91,-99.99,,,0.00,Acu-Link.com,2013-01-30 02:48:00,
2013-01-29 22:03:00,55.2,52.6,29.93,SW,225,9.9,-999.0,91,-99.99,,,0.00,Acu-Link.com,2013-01-30 03:03:00,
2013-01-29 22:18:00,55.4,53.1,29.92,SW,225,8.9,-999.0,92,-99.99,,,0.00,Acu-Link.com,2013-01-30 03:18:00,
2013-01-29 22:33:00,55.8,53.8,29.92,West,270,9.9,-999.0,93,-99.99,,,0.00,Acu-Link.com,2013-01-30 03:33:00,
2013-01-29 22:49:00,55.9,53.9,29.91,WSW,247,13.0,-999.0,93,-99.99,,,0.00,Acu-Link.com,2013-01-30 03:49:00,
2013-01-29 23:04:00,56.3,54.3,29.91,SW,225,8.3,-999.0,93,-99.99,,,0.00,Acu-Link.com,2013-01-30 04:04:00,
2013-01-29 23:19:00,56.1,54.1,29.90,WSW,247,10.9,-999.0,93,-99.99,,,0.00,Acu-Link.com,2013-01-30 04:19:00,
2013-01-29 23:35:00,56.5,54.2,29.89,WSW,247,7.8,-999.0,92,-99.99,,,0.00,Acu-Link.com,2013-01-30 04:35:00,
2013-01-29 23:50:00,56.5,54.2,29.89,WSW,247,9.4,-999.0,92,-99.99,,,0.00,Acu-Link.com,2013-01-30 04:50:00,